OIBP

Details ICAO OIBP (PGU)
Name PERSIAN GULF AIRPORT
Region Iran
Timezone Asia/Tehran (UTC+4.5)
Plans Departing 5
Arriving 1
Stats Elevation 27 ft / 8 m (AMSL)
Location 27.379589° 52.737665°
Runways 1
Magnetic Variation 2.742° E
Sunrise 2018-05-20 01:39:37 UTC / 2018-05-20 06:09:37 Local
Sunset 2018-05-20 15:14:21 UTC / 2018-05-20 19:44:21 Local
Advertisement - Login to hide

Runways

ID Width Length Bearing (true) Bearing (mag) Surface Threshold Offset Overrun Length
13 148 ft / 45 m 13,122 ft / 4,000 m 128.93° 126.19° Asphalt 0 ft / 0 m 397 ft / 121 m
31 148 ft / 45 m 13,122 ft / 4,000 m 308.95° 306.21° Asphalt 0 ft / 0 m 400 ft / 122 m

Map

Weather


0- 5 10 15 20 25 30 35+ Temperature / ° C

Clouds and Precipitation
Forecast for 2018-05-20 12:00 UTC. Updated an hour ago

Ground ~20,000 ft ~40,000 ft Winds

METAR

OIBP 201000Z 29012KT CAVOK 36/08 Q1005 A2968

TAF

Not found

Frequencies

Tower 121.72 MHz INFO
Tower 118.12 MHz INFO
Warning: Do not use this data for real-world aviation or navigation. No guarantee of current accuracy is given.